Saturday, November 01, 2014
04:51 UTC
  |  Log In   |  Register Free
Airport Search:

Julian Carroll Airport
(KJKL)

Julian Carroll Airport Diagram
No Airport Diagram Available

FAA data valid effective September 18, 2014 - November 13, 2014 (unless otherwise noted).

 
 
 
 
 
 
 
 
 
 
 
 
 
 

Current Aviation Weather for Julian Carroll Airport (KJKL)

The most recent METAR observation for KJKL was updated at: 0424
METAR Summary (Translated METAR)
KJKL
010401Z AUTO 30005KT 8SM -RA OVC005 02/01 A2992 RMK AO2 RAB0358 CIG 003V009 P0000 T00220006
KSJS
010415Z AUTO 30006KT 10SM -RA OVC006 02/02 A2990 RMK AO2 T00200015
(33.7 nm NE from KJKL)
KPBX
010415Z AUTO 27004KT 4SM -SN OVC003 01/00 A2989 RMK AO2 T00050003
(35.8 nm SE from KJKL)
TAF Summary (Translated TAF)
KJKL
311737Z 3118/0118 VRB06KT 6SM -SHRA BR BKN007 OVC010 FM010000 29007KT 3SM -RA BR OVC007 FM010400 30009KT 2SM -RASN BR OVC005 FM010800 29008KT 2SM -SN BR OVC005 FM011400 29008KT 3SM -RASN BR OVC009
KSJS
(33.7 nm NE from KJKL)
311737Z 3118/0118 VRB06KT P6SM -SHRA SCT007 BKN010 OVC030 FM010000 29007KT 3SM -RA BR OVC007 FM010400 30009KT 2SM -RASN BR OVC005 FM010800 29008KT 2SM -SN BR OVC005 FM011400 29008KT 3SM -RASN BR OVC009
  Airport Weather Conditions for KJKL

 Current Weather at JKL
36° F
Overcast
West winds at 5.8 mph
JKL NOAA Radar

Pressure: 29.93 in
Humidity: 93%
Wind: West at 5.8 MPH (5 KT)
Dew Point: 34.0°F
Visibility: 8.00 mi


Airport Weather Forecast for KJKL

Translated METAR and TAF for KJKL
Translated METAR for KJKL (0446 UTC 01 November 2014)
found at http://aviationweather.gov/adds/metars/
 
METAR text: KJKL 010401Z AUTO 30005KT 8SM -RA OVC005 02/01 A2992 RMK AO2 RAB0358 CIG 003V009 P0000 T00220006
Conditions at: KJKL (NOCTOR/JACKSON , KY, US) observed 0401 UTC 01 November 2014
Temperature: 2.2°C (36°F)
Dewpoint: 0.6°C (33°F) [RH = 89%]
Pressure (altimeter): 29.92 inches Hg (1013.3 mb)
Winds: from the WNW (300 degrees) at 6 MPH (5 knots; 2.6 m/s)
Visibility: 8 miles (13 km)
Ceiling: 500 feet AGL
Clouds: overcast cloud deck at 500 feet AGL
Weather: -RA  (light rain)
Translated TAF for KJKL
Forecast for: KJKL (NOCTOR/JACKSON , KY, US)
TAF Text: KJKL 312350Z 0100/0124 30007G20KT 6SM -SHSN BKN006 OVC010
Forecast period: 0000 to 0400 UTC 01 November 2014
Forecast type: FROM: standard forecast or significant change
Winds: from the WNW (300 degrees) at 8 MPH (7 knots; 3.6 m/s)
gusting to 23 MPH (20 knots; 10.4 m/s)
Visibility: 6 miles (10 km)
Ceiling: 600 feet AGL
Clouds: broken clouds at 600 feet AGL
overcast cloud deck at 1000 feet AGL
Weather: -SHSN  (light snow showers)
TAF Text: FM010400 30007KT 4SM -SHSN BR OVC008
Forecast period: 0400 to 0600 UTC 01 November 2014
Forecast type: FROM: standard forecast or significant change
Winds: from the WNW (300 degrees) at 8 MPH (7 knots; 3.6 m/s)
Visibility: 4 miles (6 km)
Ceiling: 800 feet AGL
Clouds: overcast cloud deck at 800 feet AGL
Weather: -SHSN BR  (light snow showers, mist)
TAF Text: FM010600 30007KT 2SM -SHSN BR OVC003
Forecast period: 0600 to 1600 UTC 01 November 2014
Forecast type: FROM: standard forecast or significant change
Winds: from the WNW (300 degrees) at 8 MPH (7 knots; 3.6 m/s)
Visibility: 2.00 miles (3.22 km)
Ceiling: 300 feet AGL
Clouds: overcast cloud deck at 300 feet AGL
Weather: -SHSN BR  (light snow showers, mist)
TAF Text: FM011600 33009KT 6SM SHRASN BR OVC008
Forecast period: 1600 to 1800 UTC 01 November 2014
Forecast type: FROM: standard forecast or significant change
Winds: from the NNW (330 degrees) at 10 MPH (9 knots; 4.7 m/s)
Visibility: 6 miles (10 km)
Ceiling: 800 feet AGL
Clouds: overcast cloud deck at 800 feet AGL
Weather: SHRA SHSN BR  (rain showers, snow showers, mist)
TAF Text: FM011800 33009KT P6SM OVC015
Forecast period: 1800 to 2300 UTC 01 November 2014
Forecast type: FROM: standard forecast or significant change
Winds: from the NNW (330 degrees) at 10 MPH (9 knots; 4.7 m/s)
Visibility: 6 or more miles (10+ km)
Ceiling: 1500 feet AGL
Clouds: overcast cloud deck at 1500 feet AGL
Weather: no significant weather forecast for this period
TAF Text: FM012300 32008KT P6SM BKN030
Forecast period: 2300 UTC 01 November 2014 to 0000 UTC 02 November 2014
Forecast type: FROM: standard forecast or significant change
Winds: from the NW (320 degrees) at 9 MPH (8 knots; 4.2 m/s)
Visibility: 6 or more miles (10+ km)
Ceiling: 3000 feet AGL
Clouds: broken clouds at 3000 feet AGL
Weather: no significant weather forecast for this period

Find All Airport Services Find A Hotel Find A Rental Car Find A Golf Course Find A Restaurant $100 Hamburger



FBO's on the Field
FBO Company Facility Photos Services Transportation Aviation Fuel Prices: Prices include tax
Catering Weather Repair Courtesy Rental Type 100LL JetA JetA+ MOGAS 8087
 
Julian Carroll Airport

This FBO has not yet been rated
FS:Independent
Last Updated: Oct-07
Login to update fuel prices
SS:
Contact Julian Carroll AirportMore FBO Information
 
Add another FBO Facility Photos Catering Weather Repair Courtesy Rental Type 100LL JetA JetA+ MOGAS 8087
Services Transportation Aviation Fuel Prices: Prices include tax


model-print
model-print
model-print
model-print